sensor_id;sensor_type;location;lat;lon;timestamp;temperature;humidity
5901;DHT22;2976;49.764;9.796;2023-08-06T00:02:23;14.80;99.90
5901;DHT22;2976;49.764;9.796;2023-08-06T00:04:48;14.80;99.90
5901;DHT22;2976;49.764;9.796;2023-08-06T00:07:14;14.70;99.90
5901;DHT22;2976;49.764;9.796;2023-08-06T00:09:39;14.70;99.90
5901;DHT22;2976;49.764;9.796;2023-08-06T00:12:05;14.70;99.90
5901;DHT22;2976;49.764;9.796;2023-08-06T00:14:31;14.70;99.90
5901;DHT22;2976;49.764;9.796;2023-08-06T00:16:56;14.80;99.90
5901;DHT22;2976;49.764;9.796;2023-08-06T00:19:22;14.80;99.90
5901;DHT22;2976;49.764;9.796;2023-08-06T00:21:47;14.90;99.90
5901;DHT22;2976;49.764;9.796;2023-08-06T00:24:13;14.90;99.90
5901;DHT22;2976;49.764;9.796;2023-08-06T00:26:39;14.80;99.90
5901;DHT22;2976;49.764;9.796;2023-08-06T00:29:04;14.80;99.90
5901;DHT22;2976;49.764;9.796;2023-08-06T00:31:30;14.80;99.90
5901;DHT22;2976;49.764;9.796;2023-08-06T00:33:55;14.70;99.90
5901;DHT22;2976;49.764;9.796;2023-08-06T00:36:21;14.70;99.90
5901;DHT22;2976;49.764;9.796;2023-08-06T00:38:46;14.60;99.90
5901;DHT22;2976;49.764;9.796;2023-08-06T00:41:12;14.60;99.90
5901;DHT22;2976;49.764;9.796;2023-08-06T00:43:37;14.60;99.90
5901;DHT22;2976;49.764;9.796;2023-08-06T00:46:03;14.50;99.90
5901;DHT22;2976;49.764;9.796;2023-08-06T00:48:29;14.50;99.90
5901;DHT22;2976;49.764;9.796;2023-08-06T00:50:55;14.50;99.90
5901;DHT22;2976;49.764;9.796;2023-08-06T00:53:20;14.40;99.90
5901;DHT22;2976;49.764;9.796;2023-08-06T00:59:09;14.50;99.90
5901;DHT22;2976;49.764;9.796;2023-08-06T01:01:36;14.50;99.90
5901;DHT22;2976;49.764;9.796;2023-08-06T01:04:01;14.40;99.90
5901;DHT22;2976;49.764;9.796;2023-08-06T01:06:47;14.40;99.90
5901;DHT22;2976;49.764;9.796;2023-08-06T01:12:38;14.50;99.90
5901;DHT22;2976;49.764;9.796;2023-08-06T01:15:14;14.40;99.90
5901;DHT22;2976;49.764;9.796;2023-08-06T01:17:41;14.40;99.90
5901;DHT22;2976;49.764;9.796;2023-08-06T01:20:07;14.40;99.90
5901;DHT22;2976;49.764;9.796;2023-08-06T01:22:32;14.40;99.90
5901;DHT22;2976;49.764;9.796;2023-08-06T01:24:58;14.30;99.90
5901;DHT22;2976;49.764;9.796;2023-08-06T01:27:26;14.30;99.90
5901;DHT22;2976;49.764;9.796;2023-08-06T01:30:02;14.30;99.90
5901;DHT22;2976;49.764;9.796;2023-08-06T01:32:31;14.20;99.90
5901;DHT22;2976;49.764;9.796;2023-08-06T01:34:59;14.10;99.90
5901;DHT22;2976;49.764;9.796;2023-08-06T01:37:25;14.00;99.90
5901;DHT22;2976;49.764;9.796;2023-08-06T01:39:51;13.90;99.90
5901;DHT22;2976;49.764;9.796;2023-08-06T01:42:17;13.80;99.90
5901;DHT22;2976;49.764;9.796;2023-08-06T01:44:42;13.80;99.90
5901;DHT22;2976;49.764;9.796;2023-08-06T01:47:08;13.70;99.90
5901;DHT22;2976;49.764;9.796;2023-08-06T01:49:34;13.70;99.90
5901;DHT22;2976;49.764;9.796;2023-08-06T01:51:59;13.60;99.90
5901;DHT22;2976;49.764;9.796;2023-08-06T01:54:26;13.60;99.90
5901;DHT22;2976;49.764;9.796;2023-08-06T01:56:53;13.60;99.90
5901;DHT22;2976;49.764;9.796;2023-08-06T01:59:18;13.50;99.90
5901;DHT22;2976;49.764;9.796;2023-08-06T02:01:45;13.50;99.90
5901;DHT22;2976;49.764;9.796;2023-08-06T02:04:10;13.40;99.90
5901;DHT22;2976;49.764;9.796;2023-08-06T02:06:36;13.30;99.90
5901;DHT22;2976;49.764;9.796;2023-08-06T02:09:01;13.30;99.90
5901;DHT22;2976;49.764;9.796;2023-08-06T02:11:27;13.30;99.90
5901;DHT22;2976;49.764;9.796;2023-08-06T02:13:52;13.20;99.90
5901;DHT22;2976;49.764;9.796;2023-08-06T02:16:18;13.20;99.90
5901;DHT22;2976;49.764;9.796;2023-08-06T02:18:43;13.10;99.90
5901;DHT22;2976;49.764;9.796;2023-08-06T02:21:09;13.10;99.90
5901;DHT22;2976;49.764;9.796;2023-08-06T02:23:35;13.20;99.90
5901;DHT22;2976;49.764;9.796;2023-08-06T02:26:01;13.20;99.90
5901;DHT22;2976;49.764;9.796;2023-08-06T02:28:28;13.20;99.90
5901;DHT22;2976;49.764;9.796;2023-08-06T02:30:53;13.30;99.90
5901;DHT22;2976;49.764;9.796;2023-08-06T02:33:19;13.40;99.90
5901;DHT22;2976;49.764;9.796;2023-08-06T02:35:44;13.40;99.90
5901;DHT22;2976;49.764;9.796;2023-08-06T02:38:10;13.50;99.90
5901;DHT22;2976;49.764;9.796;2023-08-06T02:40:35;13.60;99.90
5901;DHT22;2976;49.764;9.796;2023-08-06T02:43:01;13.60;99.90
5901;DHT22;2976;49.764;9.796;2023-08-06T02:45:27;13.70;99.90
5901;DHT22;2976;49.764;9.796;2023-08-06T02:47:52;13.70;99.90
5901;DHT22;2976;49.764;9.796;2023-08-06T02:50:18;13.80;99.90
5901;DHT22;2976;49.764;9.796;2023-08-06T02:52:43;13.90;99.90
5901;DHT22;2976;49.764;9.796;2023-08-06T02:55:09;13.90;99.90
5901;DHT22;2976;49.764;9.796;2023-08-06T02:57:35;13.90;99.90
5901;DHT22;2976;49.764;9.796;2023-08-06T03:00:01;13.90;99.90
5901;DHT22;2976;49.764;9.796;2023-08-06T03:02:26;13.90;99.90
5901;DHT22;2976;49.764;9.796;2023-08-06T03:04:52;14.00;99.90
5901;DHT22;2976;49.764;9.796;2023-08-06T03:07:17;14.00;99.90
5901;DHT22;2976;49.764;9.796;2023-08-06T03:09:43;14.00;99.90
5901;DHT22;2976;49.764;9.796;2023-08-06T03:12:08;14.00;99.90
5901;DHT22;2976;49.764;9.796;2023-08-06T03:14:34;13.90;99.90
5901;DHT22;2976;49.764;9.796;2023-08-06T03:16:59;13.90;99.90
5901;DHT22;2976;49.764;9.796;2023-08-06T03:19:25;13.90;99.90
5901;DHT22;2976;49.764;9.796;2023-08-06T03:21:50;13.90;99.90
5901;DHT22;2976;49.764;9.796;2023-08-06T03:24:16;13.90;99.90
5901;DHT22;2976;49.764;9.796;2023-08-06T03:26:41;13.90;99.90
5901;DHT22;2976;49.764;9.796;2023-08-06T03:29:07;13.90;99.90
5901;DHT22;2976;49.764;9.796;2023-08-06T03:31:33;14.00;99.90
5901;DHT22;2976;49.764;9.796;2023-08-06T03:33:58;14.00;99.90
5901;DHT22;2976;49.764;9.796;2023-08-06T03:36:24;14.00;99.90
5901;DHT22;2976;49.764;9.796;2023-08-06T03:38:49;13.90;99.90
5901;DHT22;2976;49.764;9.796;2023-08-06T03:41:15;13.90;99.90
5901;DHT22;2976;49.764;9.796;2023-08-06T03:43:40;14.00;99.90
5901;DHT22;2976;49.764;9.796;2023-08-06T03:46:06;14.10;99.90
5901;DHT22;2976;49.764;9.796;2023-08-06T03:48:31;14.00;99.90
5901;DHT22;2976;49.764;9.796;2023-08-06T03:50:57;13.90;99.90
5901;DHT22;2976;49.764;9.796;2023-08-06T03:53:23;13.90;99.90
5901;DHT22;2976;49.764;9.796;2023-08-06T03:55:48;13.70;99.90
5901;DHT22;2976;49.764;9.796;2023-08-06T03:58:14;13.70;99.90
5901;DHT22;2976;49.764;9.796;2023-08-06T04:00:39;13.70;99.90
5901;DHT22;2976;49.764;9.796;2023-08-06T04:03:05;13.60;99.90
5901;DHT22;2976;49.764;9.796;2023-08-06T04:05:33;13.60;99.90
5901;DHT22;2976;49.764;9.796;2023-08-06T04:07:59;13.60;99.90
5901;DHT22;2976;49.764;9.796;2023-08-06T04:10:25;13.50;99.90
5901;DHT22;2976;49.764;9.796;2023-08-06T04:12:51;13.50;99.90
5901;DHT22;2976;49.764;9.796;2023-08-06T04:15:16;13.40;99.90
5901;DHT22;2976;49.764;9.796;2023-08-06T04:17:42;13.30;99.90
5901;DHT22;2976;49.764;9.796;2023-08-06T04:20:08;13.30;99.90
5901;DHT22;2976;49.764;9.796;2023-08-06T04:22:33;13.40;99.90
5901;DHT22;2976;49.764;9.796;2023-08-06T04:24:59;13.50;99.90
5901;DHT22;2976;49.764;9.796;2023-08-06T04:27:24;13.60;99.90
5901;DHT22;2976;49.764;9.796;2023-08-06T04:29:50;13.60;99.90
5901;DHT22;2976;49.764;9.796;2023-08-06T04:32:16;13.70;99.90
5901;DHT22;2976;49.764;9.796;2023-08-06T04:34:42;13.80;99.90
5901;DHT22;2976;49.764;9.796;2023-08-06T04:37:08;13.80;99.90
5901;DHT22;2976;49.764;9.796;2023-08-06T04:39:34;13.80;99.90
5901;DHT22;2976;49.764;9.796;2023-08-06T04:41:59;13.80;99.90
5901;DHT22;2976;49.764;9.796;2023-08-06T04:44:25;13.80;99.90
5901;DHT22;2976;49.764;9.796;2023-08-06T04:46:51;13.90;99.90
5901;DHT22;2976;49.764;9.796;2023-08-06T04:49:17;14.10;99.90
5901;DHT22;2976;49.764;9.796;2023-08-06T04:51:43;14.20;99.90
5901;DHT22;2976;49.764;9.796;2023-08-06T04:54:09;14.40;99.90
5901;DHT22;2976;49.764;9.796;2023-08-06T04:56:35;14.60;99.90
5901;DHT22;2976;49.764;9.796;2023-08-06T04:59:00;14.80;99.90
5901;DHT22;2976;49.764;9.796;2023-08-06T05:01:26;14.90;99.90
5901;DHT22;2976;49.764;9.796;2023-08-06T05:03:51;15.00;99.90
5901;DHT22;2976;49.764;9.796;2023-08-06T05:06:17;15.10;99.90
5901;DHT22;2976;49.764;9.796;2023-08-06T05:08:42;15.10;99.90
5901;DHT22;2976;49.764;9.796;2023-08-06T05:11:09;15.00;99.90
5901;DHT22;2976;49.764;9.796;2023-08-06T05:13:35;14.90;99.90
5901;DHT22;2976;49.764;9.796;2023-08-06T05:16:00;14.80;99.90
5901;DHT22;2976;49.764;9.796;2023-08-06T05:18:26;14.70;99.90
5901;DHT22;2976;49.764;9.796;2023-08-06T05:20:51;14.70;99.90
5901;DHT22;2976;49.764;9.796;2023-08-06T05:23:17;14.70;99.90
5901;DHT22;2976;49.764;9.796;2023-08-06T05:25:42;14.70;99.90
5901;DHT22;2976;49.764;9.796;2023-08-06T05:28:08;14.80;99.90
5901;DHT22;2976;49.764;9.796;2023-08-06T05:30:34;14.90;99.90
5901;DHT22;2976;49.764;9.796;2023-08-06T05:33:02;15.00;99.90
5901;DHT22;2976;49.764;9.796;2023-08-06T05:35:28;15.30;99.90
5901;DHT22;2976;49.764;9.796;2023-08-06T05:37:53;15.50;99.90
5901;DHT22;2976;49.764;9.796;2023-08-06T05:40:19;15.80;99.90
5901;DHT22;2976;49.764;9.796;2023-08-06T05:42:44;16.00;99.90
5901;DHT22;2976;49.764;9.796;2023-08-06T05:45:10;16.10;99.90
5901;DHT22;2976;49.764;9.796;2023-08-06T05:47:36;16.20;99.90
5901;DHT22;2976;49.764;9.796;2023-08-06T05:50:01;16.10;99.90
5901;DHT22;2976;49.764;9.796;2023-08-06T05:52:27;16.00;99.90
5901;DHT22;2976;49.764;9.796;2023-08-06T05:54:52;16.00;99.90
5901;DHT22;2976;49.764;9.796;2023-08-06T05:57:18;15.70;99.90
5901;DHT22;2976;49.764;9.796;2023-08-06T05:59:44;15.60;99.90
5901;DHT22;2976;49.764;9.796;2023-08-06T06:02:09;15.60;99.90
5901;DHT22;2976;49.764;9.796;2023-08-06T06:04:35;15.40;99.90
5901;DHT22;2976;49.764;9.796;2023-08-06T06:07:01;15.20;99.90
5901;DHT22;2976;49.764;9.796;2023-08-06T06:09:26;15.20;99.90
5901;DHT22;2976;49.764;9.796;2023-08-06T06:11:52;15.20;99.90
5901;DHT22;2976;49.764;9.796;2023-08-06T06:14:18;15.10;99.90
5901;DHT22;2976;49.764;9.796;2023-08-06T06:16:44;15.00;99.90
5901;DHT22;2976;49.764;9.796;2023-08-06T06:19:10;15.10;99.90
5901;DHT22;2976;49.764;9.796;2023-08-06T06:21:36;15.20;99.90
5901;DHT22;2976;49.764;9.796;2023-08-06T06:24:03;15.30;99.90
5901;DHT22;2976;49.764;9.796;2023-08-06T06:26:29;15.20;99.90
5901;DHT22;2976;49.764;9.796;2023-08-06T06:28:55;15.20;99.90
5901;DHT22;2976;49.764;9.796;2023-08-06T06:31:21;15.20;99.90
5901;DHT22;2976;49.764;9.796;2023-08-06T06:33:46;15.10;99.90
5901;DHT22;2976;49.764;9.796;2023-08-06T06:36:12;15.00;99.90
5901;DHT22;2976;49.764;9.796;2023-08-06T06:38:37;14.90;99.90
5901;DHT22;2976;49.764;9.796;2023-08-06T06:41:04;15.00;99.90
5901;DHT22;2976;49.764;9.796;2023-08-06T06:43:29;15.00;99.90
5901;DHT22;2976;49.764;9.796;2023-08-06T06:46:01;15.00;99.90
5901;DHT22;2976;49.764;9.796;2023-08-06T06:48:28;15.10;99.90
5901;DHT22;2976;49.764;9.796;2023-08-06T06:50:54;15.00;99.90
5901;DHT22;2976;49.764;9.796;2023-08-06T06:53:19;15.00;99.90
5901;DHT22;2976;49.764;9.796;2023-08-06T06:55:45;15.00;99.90
5901;DHT22;2976;49.764;9.796;2023-08-06T06:58:15;15.00;99.90
5901;DHT22;2976;49.764;9.796;2023-08-06T07:00:40;15.10;99.90
5901;DHT22;2976;49.764;9.796;2023-08-06T07:03:06;15.10;99.90
5901;DHT22;2976;49.764;9.796;2023-08-06T07:05:32;15.20;99.90
5901;DHT22;2976;49.764;9.796;2023-08-06T07:07:58;15.30;99.90
5901;DHT22;2976;49.764;9.796;2023-08-06T07:10:23;15.60;99.90
5901;DHT22;2976;49.764;9.796;2023-08-06T07:12:49;15.70;99.90
5901;DHT22;2976;49.764;9.796;2023-08-06T07:15:14;15.70;99.90
5901;DHT22;2976;49.764;9.796;2023-08-06T07:17:40;15.70;99.90
5901;DHT22;2976;49.764;9.796;2023-08-06T07:20:06;15.60;99.90
5901;DHT22;2976;49.764;9.796;2023-08-06T07:22:32;15.60;99.90
5901;DHT22;2976;49.764;9.796;2023-08-06T07:24:58;15.70;99.90
5901;DHT22;2976;49.764;9.796;2023-08-06T07:27:24;15.90;99.90
5901;DHT22;2976;49.764;9.796;2023-08-06T07:29:50;15.90;99.90
5901;DHT22;2976;49.764;9.796;2023-08-06T07:32:16;15.90;99.90
5901;DHT22;2976;49.764;9.796;2023-08-06T07:34:41;15.90;99.90
5901;DHT22;2976;49.764;9.796;2023-08-06T07:37:07;15.90;99.90
5901;DHT22;2976;49.764;9.796;2023-08-06T07:39:32;15.80;99.90
5901;DHT22;2976;49.764;9.796;2023-08-06T07:41:58;15.90;99.90
5901;DHT22;2976;49.764;9.796;2023-08-06T07:44:23;15.90;99.90
5901;DHT22;2976;49.764;9.796;2023-08-06T07:46:49;16.00;99.90
5901;DHT22;2976;49.764;9.796;2023-08-06T07:49:15;16.10;99.90
5901;DHT22;2976;49.764;9.796;2023-08-06T07:51:41;16.20;99.90
5901;DHT22;2976;49.764;9.796;2023-08-06T07:54:06;16.20;99.90
5901;DHT22;2976;49.764;9.796;2023-08-06T07:56:32;16.10;99.90
5901;DHT22;2976;49.764;9.796;2023-08-06T07:58:58;16.00;99.90
5901;DHT22;2976;49.764;9.796;2023-08-06T08:01:23;15.90;99.90
5901;DHT22;2976;49.764;9.796;2023-08-06T08:03:49;15.70;99.90
5901;DHT22;2976;49.764;9.796;2023-08-06T08:06:14;15.40;99.90
5901;DHT22;2976;49.764;9.796;2023-08-06T08:08:40;15.00;99.90
5901;DHT22;2976;49.764;9.796;2023-08-06T08:11:05;14.60;99.90
5901;DHT22;2976;49.764;9.796;2023-08-06T08:13:31;14.50;99.90
5901;DHT22;2976;49.764;9.796;2023-08-06T08:15:58;14.50;99.90
5901;DHT22;2976;49.764;9.796;2023-08-06T08:18:24;14.60;99.90
5901;DHT22;2976;49.764;9.796;2023-08-06T08:20:50;14.70;99.90
5901;DHT22;2976;49.764;9.796;2023-08-06T08:23:15;14.80;99.90
5901;DHT22;2976;49.764;9.796;2023-08-06T08:25:41;15.00;99.90
5901;DHT22;2976;49.764;9.796;2023-08-06T08:28:07;15.20;99.90
5901;DHT22;2976;49.764;9.796;2023-08-06T08:30:33;15.20;99.90
5901;DHT22;2976;49.764;9.796;2023-08-06T08:32:58;15.20;99.90
5901;DHT22;2976;49.764;9.796;2023-08-06T08:35:24;15.10;99.90
5901;DHT22;2976;49.764;9.796;2023-08-06T08:37:50;15.20;99.90
5901;DHT22;2976;49.764;9.796;2023-08-06T08:40:15;15.20;99.90
5901;DHT22;2976;49.764;9.796;2023-08-06T08:42:42;15.30;99.90
5901;DHT22;2976;49.764;9.796;2023-08-06T08:45:12;15.40;99.90
5901;DHT22;2976;49.764;9.796;2023-08-06T08:47:40;15.40;99.90
5901;DHT22;2976;49.764;9.796;2023-08-06T08:50:08;15.40;99.90
5901;DHT22;2976;49.764;9.796;2023-08-06T08:52:36;15.50;99.90
5901;DHT22;2976;49.764;9.796;2023-08-06T08:55:03;15.70;99.90
5901;DHT22;2976;49.764;9.796;2023-08-06T08:57:29;15.70;99.90
5901;DHT22;2976;49.764;9.796;2023-08-06T08:59:55;15.80;99.90
5901;DHT22;2976;49.764;9.796;2023-08-06T09:02:21;15.90;99.90
5901;DHT22;2976;49.764;9.796;2023-08-06T09:04:48;15.90;99.90
5901;DHT22;2976;49.764;9.796;2023-08-06T09:07:18;15.80;99.90
5901;DHT22;2976;49.764;9.796;2023-08-06T09:09:48;15.60;99.90
5901;DHT22;2976;49.764;9.796;2023-08-06T09:12:15;15.60;99.90
5901;DHT22;2976;49.764;9.796;2023-08-06T09:14:42;15.60;99.90
5901;DHT22;2976;49.764;9.796;2023-08-06T09:17:08;15.60;99.90
5901;DHT22;2976;49.764;9.796;2023-08-06T09:19:36;15.80;99.90
5901;DHT22;2976;49.764;9.796;2023-08-06T09:22:02;16.00;99.90
5901;DHT22;2976;49.764;9.796;2023-08-06T09:24:28;15.90;99.90
5901;DHT22;2976;49.764;9.796;2023-08-06T09:26:54;15.90;99.90
5901;DHT22;2976;49.764;9.796;2023-08-06T09:29:19;16.00;99.90
5901;DHT22;2976;49.764;9.796;2023-08-06T09:31:47;16.20;99.90
5901;DHT22;2976;49.764;9.796;2023-08-06T09:34:23;16.30;99.90
5901;DHT22;2976;49.764;9.796;2023-08-06T09:36:53;16.40;99.90
5901;DHT22;2976;49.764;9.796;2023-08-06T09:39:26;16.30;99.90
5901;DHT22;2976;49.764;9.796;2023-08-06T09:41:55;16.30;99.90
5901;DHT22;2976;49.764;9.796;2023-08-06T09:44:21;16.80;99.90
5901;DHT22;2976;49.764;9.796;2023-08-06T09:46:53;17.00;99.90
5901;DHT22;2976;49.764;9.796;2023-08-06T09:49:20;17.20;99.90
5901;DHT22;2976;49.764;9.796;2023-08-06T09:51:49;17.60;99.90
5901;DHT22;2976;49.764;9.796;2023-08-06T09:54:17;17.60;99.90
5901;DHT22;2976;49.764;9.796;2023-08-06T09:56:46;17.90;99.90
5901;DHT22;2976;49.764;9.796;2023-08-06T09:59:13;18.20;99.90
5901;DHT22;2976;49.764;9.796;2023-08-06T10:01:39;18.10;99.90
5901;DHT22;2976;49.764;9.796;2023-08-06T10:04:06;18.10;99.90
5901;DHT22;2976;49.764;9.796;2023-08-06T10:06:36;17.90;99.90
5901;DHT22;2976;49.764;9.796;2023-08-06T10:09:02;17.20;99.90
5901;DHT22;2976;49.764;9.796;2023-08-06T10:11:29;16.50;99.90
5901;DHT22;2976;49.764;9.796;2023-08-06T10:14:08;16.20;99.90
5901;DHT22;2976;49.764;9.796;2023-08-06T10:16:36;16.40;99.90
5901;DHT22;2976;49.764;9.796;2023-08-06T10:19:04;16.90;99.90
5901;DHT22;2976;49.764;9.796;2023-08-06T10:21:31;17.00;99.90
5901;DHT22;2976;49.764;9.796;2023-08-06T10:23:57;17.10;99.90
5901;DHT22;2976;49.764;9.796;2023-08-06T10:26:28;17.40;99.90
5901;DHT22;2976;49.764;9.796;2023-08-06T10:28:53;17.70;99.90
5901;DHT22;2976;49.764;9.796;2023-08-06T10:31:19;17.70;99.90
5901;DHT22;2976;49.764;9.796;2023-08-06T10:33:47;17.90;99.90
5901;DHT22;2976;49.764;9.796;2023-08-06T10:36:14;17.80;99.90
5901;DHT22;2976;49.764;9.796;2023-08-06T10:38:50;18.00;99.90
5901;DHT22;2976;49.764;9.796;2023-08-06T10:41:28;18.10;99.90
5901;DHT22;2976;49.764;9.796;2023-08-06T10:44:07;17.80;99.90
5901;DHT22;2976;49.764;9.796;2023-08-06T10:46:36;17.60;99.90
5901;DHT22;2976;49.764;9.796;2023-08-06T10:49:02;17.70;99.90
5901;DHT22;2976;49.764;9.796;2023-08-06T10:51:29;18.10;99.90
5901;DHT22;2976;49.764;9.796;2023-08-06T10:53:54;17.70;99.90
5901;DHT22;2976;49.764;9.796;2023-08-06T10:56:23;17.40;99.90
5901;DHT22;2976;49.764;9.796;2023-08-06T10:58:50;17.00;99.90
5901;DHT22;2976;49.764;9.796;2023-08-06T11:01:16;17.10;99.90
5901;DHT22;2976;49.764;9.796;2023-08-06T11:03:43;17.50;99.90
5901;DHT22;2976;49.764;9.796;2023-08-06T11:06:09;17.70;99.90
5901;DHT22;2976;49.764;9.796;2023-08-06T11:08:40;17.80;99.90
5901;DHT22;2976;49.764;9.796;2023-08-06T11:11:13;18.10;99.90
5901;DHT22;2976;49.764;9.796;2023-08-06T11:13:47;18.70;99.90
5901;DHT22;2976;49.764;9.796;2023-08-06T11:16:18;19.20;99.90
5901;DHT22;2976;49.764;9.796;2023-08-06T11:18:44;19.10;99.90
5901;DHT22;2976;49.764;9.796;2023-08-06T11:21:10;18.90;99.90
5901;DHT22;2976;49.764;9.796;2023-08-06T11:23:37;18.70;99.90
5901;DHT22;2976;49.764;9.796;2023-08-06T11:26:03;18.80;99.90
5901;DHT22;2976;49.764;9.796;2023-08-06T11:28:29;19.30;99.90
5901;DHT22;2976;49.764;9.796;2023-08-06T11:30:54;19.90;93.90
5901;DHT22;2976;49.764;9.796;2023-08-06T11:33:26;20.60;10.10
5901;DHT22;2976;49.764;9.796;2023-08-06T11:35:54;21.20;1.00
5901;DHT22;2976;49.764;9.796;2023-08-06T11:38:20;20.80;1.00
5901;DHT22;2976;49.764;9.796;2023-08-06T11:40:46;20.30;1.00
5901;DHT22;2976;49.764;9.796;2023-08-06T11:43:12;19.40;1.00
5901;DHT22;2976;49.764;9.796;2023-08-06T11:45:38;18.50;99.90
5901;DHT22;2976;49.764;9.796;2023-08-06T11:48:04;17.20;99.90
5901;DHT22;2976;49.764;9.796;2023-08-06T11:50:30;16.60;99.90
5901;DHT22;2976;49.764;9.796;2023-08-06T11:52:58;16.30;99.90
5901;DHT22;2976;49.764;9.796;2023-08-06T11:55:25;16.30;99.90
5901;DHT22;2976;49.764;9.796;2023-08-06T11:57:51;16.50;99.90
5901;DHT22;2976;49.764;9.796;2023-08-06T12:00:17;16.80;99.90
5901;DHT22;2976;49.764;9.796;2023-08-06T12:02:46;17.10;99.90
5901;DHT22;2976;49.764;9.796;2023-08-06T12:05:16;17.40;99.90
5901;DHT22;2976;49.764;9.796;2023-08-06T12:07:46;18.00;99.90
5901;DHT22;2976;49.764;9.796;2023-08-06T12:10:13;18.30;99.90
5901;DHT22;2976;49.764;9.796;2023-08-06T12:12:39;18.70;99.90
5901;DHT22;2976;49.764;9.796;2023-08-06T12:15:05;18.50;99.90
5901;DHT22;2976;49.764;9.796;2023-08-06T12:17:32;17.90;99.90
5901;DHT22;2976;49.764;9.796;2023-08-06T12:19:57;17.00;99.90
5901;DHT22;2976;49.764;9.796;2023-08-06T12:22:23;16.50;99.90
5901;DHT22;2976;49.764;9.796;2023-08-06T12:24:49;16.40;99.90
5901;DHT22;2976;49.764;9.796;2023-08-06T12:27:15;16.20;99.90
5901;DHT22;2976;49.764;9.796;2023-08-06T12:29:48;15.90;99.90
5901;DHT22;2976;49.764;9.796;2023-08-06T12:32:14;15.70;99.90
5901;DHT22;2976;49.764;9.796;2023-08-06T12:34:41;15.80;99.90
5901;DHT22;2976;49.764;9.796;2023-08-06T12:37:07;15.90;99.90
5901;DHT22;2976;49.764;9.796;2023-08-06T12:39:34;16.10;99.90
5901;DHT22;2976;49.764;9.796;2023-08-06T12:42:01;16.30;99.90
5901;DHT22;2976;49.764;9.796;2023-08-06T12:44:26;16.30;99.90
5901;DHT22;2976;49.764;9.796;2023-08-06T12:46:53;16.20;99.90
5901;DHT22;2976;49.764;9.796;2023-08-06T12:49:19;16.10;99.90
5901;DHT22;2976;49.764;9.796;2023-08-06T12:51:47;15.70;99.90
5901;DHT22;2976;49.764;9.796;2023-08-06T12:54:12;15.60;99.90
5901;DHT22;2976;49.764;9.796;2023-08-06T12:56:38;15.70;99.90
5901;DHT22;2976;49.764;9.796;2023-08-06T12:59:03;15.90;99.90
5901;DHT22;2976;49.764;9.796;2023-08-06T13:01:29;15.80;99.90
5901;DHT22;2976;49.764;9.796;2023-08-06T13:03:55;15.80;99.90
5901;DHT22;2976;49.764;9.796;2023-08-06T13:06:20;15.70;99.90
5901;DHT22;2976;49.764;9.796;2023-08-06T13:08:46;15.70;99.90
5901;DHT22;2976;49.764;9.796;2023-08-06T13:11:11;15.60;99.90
5901;DHT22;2976;49.764;9.796;2023-08-06T13:13:37;15.60;99.90
5901;DHT22;2976;49.764;9.796;2023-08-06T13:16:03;15.40;99.90
5901;DHT22;2976;49.764;9.796;2023-08-06T13:18:28;15.30;99.90
5901;DHT22;2976;49.764;9.796;2023-08-06T13:20:54;15.10;99.90
5901;DHT22;2976;49.764;9.796;2023-08-06T13:23:20;14.90;99.90
5901;DHT22;2976;49.764;9.796;2023-08-06T13:25:46;14.80;99.90
5901;DHT22;2976;49.764;9.796;2023-08-06T13:28:12;14.80;99.90
5901;DHT22;2976;49.764;9.796;2023-08-06T13:30:39;14.80;99.90
5901;DHT22;2976;49.764;9.796;2023-08-06T13:33:09;14.80;99.90
5901;DHT22;2976;49.764;9.796;2023-08-06T13:35:35;14.70;99.90
5901;DHT22;2976;49.764;9.796;2023-08-06T13:38:00;14.70;99.90
5901;DHT22;2976;49.764;9.796;2023-08-06T13:40:28;14.70;99.90
5901;DHT22;2976;49.764;9.796;2023-08-06T13:42:55;14.70;99.90
5901;DHT22;2976;49.764;9.796;2023-08-06T13:45:20;14.60;99.90
5901;DHT22;2976;49.764;9.796;2023-08-06T13:47:46;14.40;99.90
5901;DHT22;2976;49.764;9.796;2023-08-06T13:50:12;14.20;99.90
5901;DHT22;2976;49.764;9.796;2023-08-06T13:52:37;14.00;99.90
5901;DHT22;2976;49.764;9.796;2023-08-06T13:55:03;14.00;99.90
5901;DHT22;2976;49.764;9.796;2023-08-06T13:57:29;14.10;99.90
5901;DHT22;2976;49.764;9.796;2023-08-06T13:59:55;14.10;99.90
5901;DHT22;2976;49.764;9.796;2023-08-06T14:02:22;14.10;99.90
5901;DHT22;2976;49.764;9.796;2023-08-06T14:04:48;14.20;99.90
5901;DHT22;2976;49.764;9.796;2023-08-06T14:07:13;14.20;99.90
5901;DHT22;2976;49.764;9.796;2023-08-06T14:09:39;14.20;99.90
5901;DHT22;2976;49.764;9.796;2023-08-06T14:12:05;14.20;99.90
5901;DHT22;2976;49.764;9.796;2023-08-06T14:14:31;14.20;99.90
5901;DHT22;2976;49.764;9.796;2023-08-06T14:16:57;14.20;99.90
5901;DHT22;2976;49.764;9.796;2023-08-06T14:19:23;14.20;99.90
5901;DHT22;2976;49.764;9.796;2023-08-06T14:21:49;14.20;99.90
5901;DHT22;2976;49.764;9.796;2023-08-06T14:24:15;14.30;99.90
5901;DHT22;2976;49.764;9.796;2023-08-06T14:26:40;14.20;99.90
5901;DHT22;2976;49.764;9.796;2023-08-06T14:29:06;14.30;99.90
5901;DHT22;2976;49.764;9.796;2023-08-06T14:31:32;14.20;99.90
5901;DHT22;2976;49.764;9.796;2023-08-06T14:33:57;14.40;99.90
5901;DHT22;2976;49.764;9.796;2023-08-06T14:36:23;14.50;99.90
5901;DHT22;2976;49.764;9.796;2023-08-06T14:38:48;14.50;99.90
5901;DHT22;2976;49.764;9.796;2023-08-06T14:41:14;14.60;99.90
5901;DHT22;2976;49.764;9.796;2023-08-06T14:43:40;14.70;99.90
5901;DHT22;2976;49.764;9.796;2023-08-06T14:46:05;14.70;99.90
5901;DHT22;2976;49.764;9.796;2023-08-06T14:48:31;14.80;99.90
5901;DHT22;2976;49.764;9.796;2023-08-06T14:50:56;14.80;99.90
5901;DHT22;2976;49.764;9.796;2023-08-06T14:53:22;14.90;99.90
5901;DHT22;2976;49.764;9.796;2023-08-06T14:55:48;15.00;99.90
5901;DHT22;2976;49.764;9.796;2023-08-06T14:58:14;15.00;99.90
5901;DHT22;2976;49.764;9.796;2023-08-06T15:00:40;15.20;99.90
5901;DHT22;2976;49.764;9.796;2023-08-06T15:03:05;15.20;99.90
5901;DHT22;2976;49.764;9.796;2023-08-06T15:05:31;15.20;99.90
5901;DHT22;2976;49.764;9.796;2023-08-06T15:07:56;15.10;99.90
5901;DHT22;2976;49.764;9.796;2023-08-06T15:10:22;15.00;99.90
5901;DHT22;2976;49.764;9.796;2023-08-06T15:12:48;15.20;99.90
5901;DHT22;2976;49.764;9.796;2023-08-06T15:15:14;15.30;99.90
5901;DHT22;2976;49.764;9.796;2023-08-06T15:17:40;15.40;99.90
5901;DHT22;2976;49.764;9.796;2023-08-06T15:20:06;15.60;99.90
5901;DHT22;2976;49.764;9.796;2023-08-06T15:22:32;15.90;99.90
5901;DHT22;2976;49.764;9.796;2023-08-06T15:25:00;16.00;99.90
5901;DHT22;2976;49.764;9.796;2023-08-06T15:27:25;15.90;99.90
5901;DHT22;2976;49.764;9.796;2023-08-06T15:29:51;15.80;99.90
5901;DHT22;2976;49.764;9.796;2023-08-06T15:32:17;15.70;99.90
5901;DHT22;2976;49.764;9.796;2023-08-06T15:34:42;15.60;99.90
5901;DHT22;2976;49.764;9.796;2023-08-06T15:37:08;15.60;99.90
5901;DHT22;2976;49.764;9.796;2023-08-06T15:39:34;15.60;99.90
5901;DHT22;2976;49.764;9.796;2023-08-06T15:41:59;15.50;99.90
5901;DHT22;2976;49.764;9.796;2023-08-06T15:44:25;15.30;99.90
5901;DHT22;2976;49.764;9.796;2023-08-06T15:46:51;15.10;99.90
5901;DHT22;2976;49.764;9.796;2023-08-06T15:49:16;15.10;99.90
5901;DHT22;2976;49.764;9.796;2023-08-06T15:51:42;15.00;99.90
5901;DHT22;2976;49.764;9.796;2023-08-06T15:54:07;14.90;99.90
5901;DHT22;2976;49.764;9.796;2023-08-06T15:56:33;14.90;99.90
5901;DHT22;2976;49.764;9.796;2023-08-06T15:59:25;14.90;99.90
5901;DHT22;2976;49.764;9.796;2023-08-06T16:01:52;14.90;99.90
5901;DHT22;2976;49.764;9.796;2023-08-06T16:04:18;14.80;99.90